Pagina principală
METAR-TAF:

METAR-TAF

Aeroporturi :

Tri-Cities Airport

Pasco, Washington, Statele Unite ale Americii

Latitudine: 46-16-11N, longitudine: 119-07-00W, elevație: 124 m

Observații meteo curente

Raportul a fost făcut în urmă cu 19 de minute, la 21:53 UTC
Vânt 10 kt de la Sud-vest cu rafale de până la 17 kt
Temperatură 23°C
Umiditate 20%
Presiune 1019 hPa
Vizibilitate: 16.1 km
Nori puțini la o înălțime de 8500 picior

METAR: KPSC 202153Z 23010G17KT 10SM FEW085 23/M01 A3008 RMK AO2 SLP186 T02281006

Ora: 15:12 (22:12 UTC)

Prognoză

Raportul a fost făcut în urmă cu 4 ore și 50 de minute, la 17:22 UTC
Prognoză valabilă de la 20 ora 18 UTC la 21 ora 18 UTC
Vânt 6 kt de la Vest/Sud-vest
Vizibilitate: 10 km
Cer senin
De la 21 ora 1300 UTC
Vânt 9 kt de la Sud/Sud-vest
Vizibilitate: 10 km
Nori fragmentați la o înălțime de 25000 picior

TAF: KPSC 201722Z 2018/2118 24006KT P6SM SKC FM211300 20009KT P6SM BKN250

Observații și prognoze meteo pentru peste 4.000 de aeroporturi (rapoarte METAR și TAF).

Stațiile disponibile sunt reprezentate pe hartă prin puncte galbene și roșii.

Țineți indicatorul mouse-ului pe punctul dorit pentru a vedea denumirea stației.

Apoi, faceți clic pentru a vedea observațiile și prognozele meteorologice.

Pentru a schimba harta: Pentru mărire, faceți clic pe butoanele verzi cu cruce neagră; pentru micșorare, pe butonul verde cu o liniuță; pentru hărți învecinate, pe săgețile verzi.


METAR-TAF: